Time;durP1;ratioP1;P1;durP2;ratioP2;P2;SDS_P1;SDS_P2;PMS_P1;PMS_P2;Temp;Humidity;BMP_temperature;BMP_pressure;BME280_temperature;BME280_humidity;BME280_pressure;Samples;Min_cycle;Max_cycle;Signal;HPM_P1;HPM_P2
2023/01/06 00:00:07;;;;;;;23.55;9.70;;;;;;;8.54;100.00;101682.69;5035954;28;20037;-74
2023/01/06 00:02:33;;;;;;;24.88;9.80;;;;;;;8.56;100.00;101673.06;5054040;28;20061;-74
2023/01/06 00:04:58;;;;;;;23.58;9.93;;;;;;;8.58;100.00;101673.13;5053743;28;20879;-75
2023/01/06 00:07:23;;;;;;;25.52;9.43;;;;;;;8.55;100.00;101671.31;5053921;28;20063;-74
2023/01/06 00:09:49;;;;;;;23.23;9.32;;;;;;;8.57;100.00;101669.59;5053825;28;20059;-75
2023/01/06 00:12:14;;;;;;;22.35;9.05;;;;;;;8.60;100.00;101667.03;5053521;28;20025;-76
2023/01/06 00:14:41;;;;;;;23.35;9.10;;;;;;;8.58;100.00;101668.75;5053930;28;20029;-75
2023/01/06 00:17:07;;;;;;;22.15;8.52;;;;;;;8.61;100.00;101658.28;5053506;28;20033;-75
2023/01/06 00:19:32;;;;;;;22.52;8.18;;;;;;;8.64;100.00;101652.22;5053473;28;20083;-76
2023/01/06 00:21:58;;;;;;;21.55;7.88;;;;;;;8.62;100.00;101648.63;5053572;28;20380;-75
2023/01/06 00:24:23;;;;;;;22.88;7.25;;;;;;;8.68;100.00;101659.34;5053320;28;20028;-75
2023/01/06 00:26:48;;;;;;;21.02;7.00;;;;;;;8.71;100.00;101655.03;5053358;28;20041;-75
2023/01/06 00:29:14;;;;;;;20.75;7.10;;;;;;;8.73;100.00;101644.53;5053365;28;20044;-75
2023/01/06 00:31:39;;;;;;;21.42;6.20;;;;;;;8.79;100.00;101655.22;5053156;28;20153;-75
2023/01/06 00:34:04;;;;;;;20.02;5.97;;;;;;;8.73;100.00;101645.41;5035218;28;20357;-75
2023/01/06 00:36:30;;;;;;;20.00;5.72;;;;;;;8.77;100.00;101648.13;5053318;28;20025;-76
2023/01/06 00:38:55;;;;;;;17.85;5.30;;;;;;;8.77;100.00;101649.03;5053054;28;20064;-74
2023/01/06 00:44:05;;;;;;;18.48;5.45;;;;;;;8.80;100.00;101651.72;5051373;28;20522;-75
2023/01/06 00:46:32;;;;;;;18.77;5.72;;;;;;;8.79;100.00;101643.78;5053187;28;20056;-74
2023/01/06 00:48:59;;;;;;;19.23;5.60;;;;;;;8.84;100.00;101644.78;5052673;28;20166;-74
2023/01/06 00:51:24;;;;;;;19.23;5.55;;;;;;;8.88;100.00;101650.19;5052816;28;20486;-79
2023/01/06 00:53:50;;;;;;;18.85;5.70;;;;;;;8.83;100.00;101650.91;5052323;28;20053;-75
2023/01/06 00:56:15;;;;;;;19.13;5.40;;;;;;;8.80;100.00;101640.31;5035094;28;20039;-75
2023/01/06 00:58:40;;;;;;;19.55;5.00;;;;;;;8.82;100.00;101644.72;5052989;28;20021;-75
2023/01/06 01:01:07;;;;;;;17.70;5.00;;;;;;;8.87;100.00;101645.75;5052721;28;20111;-75
2023/01/06 01:03:34;;;;;;;17.77;5.00;;;;;;;8.88;100.00;101644.00;5052682;28;20033;-74
2023/01/06 01:06:01;;;;;;;17.90;5.07;;;;;;;8.81;100.00;101648.25;5052813;28;20032;-75
2023/01/06 01:08:27;;;;;;;17.90;5.15;;;;;;;8.86;100.00;101637.81;5052581;28;20079;-75
2023/01/06 01:10:53;;;;;;;19.95;5.50;;;;;;;8.82;100.00;101638.59;5052536;28;20049;-75
2023/01/06 01:13:19;;;;;;;20.33;5.47;;;;;;;8.94;100.00;101635.34;5048954;28;20059;-75
2023/01/06 01:15:44;;;;;;;20.58;5.70;;;;;;;8.95;100.00;101632.75;5052556;28;20061;-75
2023/01/06 01:18:09;;;;;;;19.70;5.40;;;;;;;8.93;100.00;101639.75;5052489;28;20025;-75
2023/01/06 01:20:34;;;;;;;18.80;5.30;;;;;;;8.95;100.00;101645.03;5052544;28;20079;-78
2023/01/06 01:23:00;;;;;;;20.35;5.25;;;;;;;8.91;100.00;101630.88;5052405;28;20025;-76
2023/01/06 01:25:25;;;;;;;19.52;4.90;;;;;;;8.90;100.00;101642.31;5052397;28;20031;-74
2023/01/06 01:27:51;;;;;;;17.38;4.70;;;;;;;8.88;100.00;101637.00;5052575;28;20028;-74
2023/01/06 01:30:16;;;;;;;16.13;4.78;;;;;;;8.84;100.00;101626.31;5052268;28;20435;-74
2023/01/06 01:32:41;;;;;;;19.17;4.47;;;;;;;8.88;100.00;101628.16;5052346;28;20033;-74
2023/01/06 01:35:07;;;;;;;15.27;4.35;;;;;;;8.96;100.00;101623.97;5052471;28;20472;-74
2023/01/06 01:37:33;;;;;;;15.18;4.45;;;;;;;8.96;100.00;101613.44;5052350;28;20087;-74
2023/01/06 01:39:58;;;;;;;14.13;4.13;;;;;;;8.96;100.00;101623.97;5034726;28;20052;-76
2023/01/06 01:42:23;;;;;;;18.00;4.18;;;;;;;8.94;100.00;101611.59;5052544;28;20033;-75
2023/01/06 01:44:55;;;;;;;16.17;4.10;;;;;;;8.96;100.00;101612.56;5030300;28;20025;-78
2023/01/06 01:48:02;;;;;;;16.15;4.00;;;;;;;8.99;100.00;101610.88;5048169;28;20061;-75
2023/01/06 01:50:41;;;;;;;14.90;3.83;;;;;;;9.04;100.00;101595.13;4996241;28;20054;-75
2023/01/06 01:53:14;;;;;;;15.02;3.50;;;;;;;9.01;100.00;101598.63;5002860;28;20042;-74
2023/01/06 01:55:40;;;;;;;12.60;3.45;;;;;;;9.03;100.00;101588.97;5003116;28;20034;-75
2023/01/06 01:58:17;;;;;;;13.10;3.40;;;;;;;9.02;100.00;101597.75;5003043;28;20469;-74
2023/01/06 02:00:43;;;;;;;15.48;3.42;;;;;;;9.07;100.00;101592.56;5003527;28;20057;-74
2023/01/06 02:03:11;;;;;;;16.27;3.50;;;;;;;9.11;100.00;101598.81;5002383;28;20504;-74
2023/01/06 02:05:40;;;;;;;10.38;3.17;;;;;;;9.05;100.00;101596.94;5003979;28;20109;-75
2023/01/06 02:08:27;;;;;;;16.40;3.50;;;;;;;9.06;100.00;101586.41;5006746;28;20040;-75
2023/01/06 02:10:53;;;;;;;13.65;3.30;;;;;;;9.04;100.00;101592.50;5008227;28;20033;-75
2023/01/06 02:13:18;;;;;;;13.80;3.25;;;;;;;9.05;100.00;101592.53;5004652;28;20031;-74
2023/01/06 02:15:44;;;;;;;15.13;3.10;;;;;;;9.06;100.00;101596.09;5007729;28;20026;-75
2023/01/06 02:18:25;;;;;;;14.43;3.20;;;;;;;9.07;100.00;101597.84;5006046;28;20504;-75
2023/01/06 02:21:09;;;;;;;14.55;3.10;;;;;;;9.07;100.00;101590.84;5007981;28;20026;-74
2023/01/06 02:23:45;;;;;;;11.32;2.80;;;;;;;9.19;100.00;101589.34;5005891;28;20037;-75
2023/01/06 02:26:48;;;;;;;14.05;3.20;;;;;;;9.22;100.00;101594.69;5005643;28;20060;-75
2023/01/06 02:29:31;;;;;;;13.07;3.10;;;;;;;9.00;100.00;101583.66;5007360;28;20034;-74
2023/01/06 02:32:18;;;;;;;12.70;2.90;;;;;;;8.99;100.00;101571.31;5003421;28;20062;-74
2023/01/06 02:35:05;;;;;;;12.02;2.80;;;;;;;9.10;100.00;101570.66;5005228;28;20022;-74
2023/01/06 02:37:59;;;;;;;13.68;2.88;;;;;;;9.11;100.00;101564.53;5005181;28;20427;-77
2023/01/06 02:40:29;;;;;;;11.82;2.90;;;;;;;9.13;100.00;101557.53;4990257;28;20066;-75
2023/01/06 02:43:39;;;;;;;10.45;2.85;;;;;;;9.21;100.00;101561.22;5007752;28;20033;-76
2023/01/06 02:46:20;;;;;;;9.57;2.60;;;;;;;9.19;100.00;101549.75;5005372;28;20448;-75
2023/01/06 02:49:14;;;;;;;12.18;2.70;;;;;;;9.18;100.00;101540.94;5034420;28;20072;-75
2023/01/06 02:51:55;;;;;;;11.50;2.75;;;;;;;9.16;100.00;101544.41;5053607;28;20116;-75
2023/01/06 02:54:29;;;;;;;9.65;2.60;;;;;;;9.14;100.00;101535.56;5051141;28;20029;-74
2023/01/06 02:57:17;;;;;;;9.98;2.97;;;;;;;9.20;100.00;101528.69;5052031;28;20036;-75
2023/01/06 02:59:50;;;;;;;15.93;2.75;;;;;;;9.15;100.00;101535.59;5054229;28;20029;-74
2023/01/06 03:02:18;;;;;;;11.50;2.60;;;;;;;9.18;100.00;101540.06;5055177;28;20360;-75
2023/01/06 03:04:47;;;;;;;12.68;2.50;;;;;;;9.25;100.00;101528.78;5054902;28;20032;-75
2023/01/06 03:07:15;;;;;;;12.98;2.63;;;;;;;9.25;100.00;101528.78;5054837;28;20020;-75
2023/01/06 03:09:42;;;;;;;10.98;2.47;;;;;;;9.26;100.00;101522.63;5054963;28;20021;-74
2023/01/06 03:12:17;;;;;;;11.10;2.60;;;;;;;9.29;100.00;101528.00;5036829;28;20166;-75
2023/01/06 03:14:48;;;;;;;10.15;2.50;;;;;;;9.32;100.00;101517.50;5055003;28;20029;-74
2023/01/06 03:17:14;;;;;;;12.05;3.42;;;;;;;9.35;100.00;101520.19;5053715;28;20029;-77
2023/01/06 03:19:40;;;;;;;9.50;2.70;;;;;;;9.33;100.00;101521.91;5054645;28;20025;-76
2023/01/06 03:22:07;;;;;;;13.95;3.00;;;;;;;9.30;100.00;101503.38;5036735;28;20108;-74
2023/01/06 03:24:34;;;;;;;10.23;2.58;;;;;;;9.26;100.00;101501.53;5054476;28;20033;-75
2023/01/06 03:27:00;;;;;;;11.30;2.60;;;;;;;9.32;100.00;101500.75;5054645;28;20107;-74
2023/01/06 03:29:25;;;;;;;11.15;2.70;;;;;;;9.36;100.00;101502.59;5054413;28;20045;-74
2023/01/06 03:31:53;;;;;;;13.93;2.70;;;;;;;9.34;100.00;101509.59;5054398;28;20494;-74
2023/01/06 03:34:38;;;;;;;14.25;2.90;;;;;;;9.41;100.00;101511.50;5054526;28;20025;-74
2023/01/06 03:37:06;;;;;;;8.90;2.63;;;;;;;9.38;100.00;101507.06;5052192;28;20483;-81
2023/01/06 03:39:59;;;;;;;15.35;2.90;;;;;;;9.41;100.00;101503.59;5054272;28;20531;-74
2023/01/06 03:45:24;;;;;;;10.90;2.63;;;;;;;9.35;100.00;101490.25;5050391;28;20098;-75
2023/01/06 03:47:56;;;;;;;9.00;2.60;;;;;;;9.34;100.00;101488.50;5053803;28;20116;-74
2023/01/06 03:50:31;;;;;;;10.90;2.65;;;;;;;9.39;100.00;101508.84;5050119;28;20045;-74
2023/01/06 03:53:23;;;;;;;11.07;2.53;;;;;;;9.40;100.00;101504.44;5051068;28;20044;-79
2023/01/06 03:55:59;;;;;;;8.45;2.50;;;;;;;9.40;100.00;101505.31;5053820;28;20028;-75
2023/01/06 03:58:27;;;;;;;9.45;2.47;;;;;;;9.41;100.00;101499.19;5050585;28;20086;-83
2023/01/06 04:00:53;;;;;;;10.15;2.58;;;;;;;9.55;100.00;101496.84;5050223;28;20024;-75
2023/01/06 04:03:24;;;;;;;12.32;2.60;;;;;;;9.52;100.00;101488.88;5053746;28;20033;-74
2023/01/06 04:05:49;;;;;;;10.68;2.70;;;;;;;9.41;100.00;101490.41;5053728;28;20025;-74
2023/01/06 04:08:14;;;;;;;9.43;2.58;;;;;;;9.43;100.00;101489.53;5018896;28;20044;-75
2023/01/06 04:10:40;;;;;;;11.52;2.80;;;;;;;9.52;100.00;101482.69;5053776;28;20132;-75
2023/01/06 04:13:05;;;;;;;11.30;2.70;;;;;;;9.54;100.00;101471.28;5053617;28;20035;-78
2023/01/06 04:15:31;;;;;;;7.35;2.45;;;;;;;9.50;100.00;101473.84;5053669;28;20098;-75
2023/01/06 04:17:56;;;;;;;8.95;2.60;;;;;;;9.47;100.00;101473.81;5016085;28;20061;-75
2023/01/06 04:20:27;;;;;;;10.85;2.60;;;;;;;9.47;100.00;101481.72;5053736;28;20061;-75
2023/01/06 04:22:54;;;;;;;8.68;2.50;;;;;;;9.55;100.00;101470.44;5049744;28;20041;-75
2023/01/06 04:25:20;;;;;;;9.30;2.60;;;;;;;9.49;100.00;101449.19;5053286;28;20132;-75
2023/01/06 04:27:45;;;;;;;10.82;2.70;;;;;;;9.53;100.00;101452.78;5053290;28;20167;-75
2023/01/06 04:30:11;;;;;;;11.15;2.60;;;;;;;9.53;100.00;101455.44;5053334;28;20029;-75
2023/01/06 04:32:36;;;;;;;9.10;2.40;;;;;;;9.54;100.00;101444.91;5053157;28;20498;-76
2023/01/06 04:35:02;;;;;;;10.05;2.50;;;;;;;9.54;100.00;101428.19;5053303;28;20052;-74
2023/01/06 04:37:27;;;;;;;9.05;2.45;;;;;;;9.55;100.00;101440.50;5053222;28;20025;-75
2023/01/06 04:39:53;;;;;;;4.85;2.35;;;;;;;9.55;100.00;101425.56;5053065;28;20051;-75
2023/01/06 04:42:18;;;;;;;9.15;2.30;;;;;;;9.51;100.00;101412.25;5053616;28;20033;-74
2023/01/06 04:44:43;;;;;;;10.18;2.33;;;;;;;9.48;100.00;101430.69;5035089;28;20088;-74
2023/01/06 04:47:09;;;;;;;7.97;2.38;;;;;;;9.49;100.00;101416.66;5052908;28;20025;-75
2023/01/06 04:49:35;;;;;;;7.60;2.47;;;;;;;9.54;100.00;101401.78;5052939;28;20041;-75
2023/01/06 04:52:00;;;;;;;6.55;2.30;;;;;;;9.53;100.00;101403.53;5035062;28;20052;-75
2023/01/06 04:54:26;;;;;;;6.20;2.30;;;;;;;9.58;100.00;101414.16;5052962;28;20021;-77
2023/01/06 04:56:51;;;;;;;7.88;2.40;;;;;;;9.56;100.00;101415.88;5053056;28;20028;-75
2023/01/06 04:59:17;;;;;;;9.25;2.38;;;;;;;9.53;100.00;101422.00;5052762;28;20041;-75
2023/01/06 05:01:42;;;;;;;7.90;2.28;;;;;;;9.56;100.00;101431.72;5034943;28;20040;-74
2023/01/06 05:04:07;;;;;;;7.75;2.33;;;;;;;9.57;100.00;101409.75;5052890;28;20450;-75
2023/01/06 05:06:33;;;;;;;6.63;2.20;;;;;;;9.54;100.00;101410.59;5052705;28;20039;-74
2023/01/06 05:08:59;;;;;;;8.40;2.20;;;;;;;9.46;100.00;101411.31;5052820;28;20029;-78
2023/01/06 05:11:25;;;;;;;8.13;2.22;;;;;;;9.55;100.00;101396.53;5052546;28;20029;-80
2023/01/06 05:13:51;;;;;;;7.97;2.30;;;;;;;9.51;100.00;101401.72;5052519;28;20533;-75
2023/01/06 05:16:20;;;;;;;7.72;2.20;;;;;;;9.50;100.00;101400.84;5052682;28;20037;-74
2023/01/06 05:18:45;;;;;;;8.50;2.20;;;;;;;9.50;100.00;101385.00;5052682;28;20017;-77
2023/01/06 05:21:11;;;;;;;9.32;2.25;;;;;;;9.52;100.00;101407.03;5052532;28;20044;-74
2023/01/06 05:23:37;;;;;;;7.47;2.20;;;;;;;9.49;100.00;101400.81;5052667;28;20103;-78
2023/01/06 05:26:04;;;;;;;5.57;2.10;;;;;;;9.41;100.00;101401.56;5052353;28;20033;-74
2023/01/06 05:28:30;;;;;;;6.75;2.30;;;;;;;9.50;100.00;101402.59;5052358;28;20480;-75
2023/01/06 05:31:00;;;;;;;7.60;2.22;;;;;;;9.45;100.00;101405.16;5052469;28;20041;-74
2023/01/06 05:33:26;;;;;;;6.97;2.40;;;;;;;9.48;100.00;101407.84;5048970;28;20383;-75
2023/01/06 05:36:06;;;;;;;6.15;2.10;;;;;;;9.53;100.00;101415.84;5030294;28;20028;-77
2023/01/06 05:38:32;;;;;;;8.75;2.40;;;;;;;9.52;100.00;101403.50;5049567;28;20025;-75
2023/01/06 05:40:57;;;;;;;6.35;2.22;;;;;;;9.46;100.00;101413.94;5054434;28;20423;-75
2023/01/06 05:43:24;;;;;;;8.50;2.33;;;;;;;9.51;100.00;101412.25;5056376;28;20068;-75
2023/01/06 05:45:49;;;;;;;6.35;2.15;;;;;;;9.54;100.00;101415.88;5056403;28;20029;-74
2023/01/06 05:48:15;;;;;;;8.50;2.35;;;;;;;9.59;100.00;101408.91;5056161;28;20095;-75
2023/01/06 05:50:40;;;;;;;5.35;2.20;;;;;;;9.58;100.00;101419.44;5056294;28;20037;-74
2023/01/06 05:53:06;;;;;;;7.63;2.30;;;;;;;9.56;100.00;101424.69;5056250;28;20391;-75
2023/01/06 05:55:31;;;;;;;7.63;2.30;;;;;;;9.52;100.00;101408.78;5056480;28;20089;-76
2023/01/06 05:57:57;;;;;;;7.63;2.30;;;;;;;9.47;100.00;101410.47;5056346;28;20534;-75
2023/01/06 06:00:22;;;;;;;9.43;2.67;;;;;;;9.49;100.00;101414.00;5056080;28;20434;-75
2023/01/06 06:02:48;;;;;;;9.57;2.53;;;;;;;9.49;100.00;101412.25;5056218;28;20037;-75
2023/01/06 06:05:13;;;;;;;8.10;2.33;;;;;;;9.52;100.00;101412.31;5055990;28;20464;-75
2023/01/06 06:07:38;;;;;;;7.15;2.30;;;;;;;9.56;100.00;101427.31;5056178;28;20116;-75
2023/01/06 06:10:04;;;;;;;8.65;2.40;;;;;;;9.52;100.00;101421.97;5055856;28;20021;-74
2023/01/06 06:12:30;;;;;;;13.30;2.95;;;;;;;9.46;100.00;101409.56;5055830;28;20029;-75
2023/01/06 06:14:55;;;;;;;6.07;2.40;;;;;;;9.55;100.00;101403.53;5056049;28;20025;-75
2023/01/06 06:17:21;;;;;;;9.07;2.42;;;;;;;9.45;100.00;101402.53;5055775;28;20029;-75
2023/01/06 06:19:46;;;;;;;6.18;2.58;;;;;;;9.49;100.00;101408.72;5055662;28;20071;-76
2023/01/06 06:22:11;;;;;;;8.15;2.40;;;;;;;9.56;100.00;101393.00;5055963;28;20056;-75
2023/01/06 06:24:37;;;;;;;8.93;2.40;;;;;;;9.51;100.00;101412.25;5055849;28;20501;-75
2023/01/06 06:27:02;;;;;;;8.85;2.30;;;;;;;9.52;100.00;101432.53;5055722;28;20415;-76
2023/01/06 06:29:27;;;;;;;6.95;2.50;;;;;;;9.53;100.00;101415.84;5055979;28;20025;-75
2023/01/06 06:31:53;;;;;;;8.95;2.40;;;;;;;9.53;100.00;101415.84;5037658;28;20037;-75
2023/01/06 06:34:18;;;;;;;7.95;2.30;;;;;;;9.57;100.00;101415.03;5055489;28;20029;-75
2023/01/06 06:36:44;;;;;;;5.20;2.30;;;;;;;9.58;100.00;101406.22;5055587;28;20029;-74
2023/01/06 06:39:09;;;;;;;7.18;2.40;;;;;;;9.56;100.00;101408.84;5055414;28;20025;-75
2023/01/06 06:41:34;;;;;;;10.50;2.72;;;;;;;9.54;100.00;101393.88;5055549;28;20025;-75
2023/01/06 06:44:00;;;;;;;10.27;2.70;;;;;;;9.38;100.00;101417.34;5055384;28;20036;-75
2023/01/06 06:46:25;;;;;;;8.90;2.80;;;;;;;9.28;100.00;101404.84;5055358;28;20029;-75
2023/01/06 06:48:51;;;;;;;7.88;2.72;;;;;;;9.35;100.00;101406.72;5055204;28;20053;-76
2023/01/06 06:51:19;;;;;;;8.90;2.60;;;;;;;9.30;100.00;101413.66;5051842;28;20083;-84
2023/01/06 06:53:48;;;;;;;9.57;2.80;;;;;;;9.22;100.00;101405.59;5053064;28;20016;-79
2023/01/06 06:56:15;;;;;;;10.73;2.75;;;;;;;9.17;100.00;101420.44;5020933;28;20102;-75
2023/01/06 06:58:41;;;;;;;8.68;2.70;;;;;;;9.03;100.00;101407.00;5058199;28;20067;-75
2023/01/06 07:01:15;;;;;;;7.07;2.75;;;;;;;9.13;100.00;101409.81;5054997;28;20120;-81
2023/01/06 07:03:41;;;;;;;10.15;3.10;;;;;;;9.08;100.00;101423.78;5054201;28;20052;-74
2023/01/06 07:06:09;;;;;;;7.28;2.80;;;;;;;9.10;100.00;101425.59;5054086;28;20064;-83
2023/01/06 07:08:34;;;;;;;9.77;3.13;;;;;;;9.06;100.00;101438.72;5053676;28;20025;-79
2023/01/06 07:11:00;;;;;;;8.73;2.97;;;;;;;8.95;100.00;101439.34;5057786;28;20357;-74
2023/01/06 07:13:25;;;;;;;11.55;3.33;;;;;;;8.82;100.00;101439.09;5060989;28;20416;-75
2023/01/06 07:15:51;;;;;;;12.32;3.45;;;;;;;8.73;100.00;101452.97;5054554;28;20411;-76
2023/01/06 07:18:17;;;;;;;13.07;3.50;;;;;;;8.66;100.00;101434.34;5054385;28;20064;-75
2023/01/06 07:20:47;;;;;;;13.80;3.67;;;;;;;8.63;100.00;101429.03;5055825;28;20119;-72
2023/01/06 07:23:13;;;;;;;10.88;3.72;;;;;;;8.55;100.00;101442.03;5053549;28;20048;-82
2023/01/06 07:25:38;;;;;;;14.40;3.88;;;;;;;8.50;100.00;101444.59;5035333;28;20472;-79
2023/01/06 07:28:05;;;;;;;15.18;4.00;;;;;;;8.54;100.00;101425.31;5053997;28;20464;-83
2023/01/06 07:30:32;;;;;;;12.32;4.05;;;;;;;8.48;100.00;101430.47;5035859;28;20400;-81
2023/01/06 07:32:58;;;;;;;12.95;4.10;;;;;;;8.45;100.00;101442.69;5053166;28;20029;-81
2023/01/06 07:35:24;;;;;;;11.52;4.18;;;;;;;8.48;100.00;101430.47;5057186;28;20033;-82
2023/01/06 07:37:49;;;;;;;11.88;4.13;;;;;;;8.46;100.00;101436.53;5058104;28;20031;-80
2023/01/06 07:40:16;;;;;;;14.45;4.78;;;;;;;8.43;100.00;101437.34;5057231;28;20079;-81
2023/01/06 07:42:42;;;;;;;12.82;4.50;;;;;;;8.44;100.00;101451.41;5055132;28;20025;-80
2023/01/06 07:45:07;;;;;;;13.30;4.45;;;;;;;8.44;100.00;101449.69;5055454;28;20127;-80
2023/01/06 07:47:33;;;;;;;14.80;4.53;;;;;;;8.43;100.00;101441.72;5053411;28;20365;-85
2023/01/06 07:49:58;;;;;;;13.18;4.57;;;;;;;8.40;100.00;101455.69;5054649;28;20049;-83
2023/01/06 07:52:24;;;;;;;14.32;4.35;;;;;;;8.41;100.00;101459.25;5035218;28;20032;-75
2023/01/06 07:54:49;;;;;;;14.65;4.35;;;;;;;8.45;100.00;101454.13;5060546;28;20040;-78
2023/01/06 07:57:14;;;;;;;12.77;4.30;;;;;;;8.48;100.00;101477.00;5055984;28;20029;-75
2023/01/06 07:59:40;;;;;;;15.35;4.30;;;;;;;8.49;100.00;101476.13;5053048;28;20044;-75
2023/01/06 08:02:05;;;;;;;10.70;4.10;;;;;;;8.53;100.00;101485.91;5058518;28;20383;-77
2023/01/06 08:04:33;;;;;;;13.93;4.20;;;;;;;8.54;100.00;101482.41;5052037;28;20489;-75
2023/01/06 08:06:59;;;;;;;14.65;4.00;;;;;;;8.62;100.00;101474.66;5054027;28;20522;-75
2023/01/06 08:09:24;;;;;;;12.20;4.00;;;;;;;8.70;100.00;101481.91;5055808;28;20033;-77
2023/01/06 08:11:59;;;;;;;11.65;4.00;;;;;;;8.74;100.00;101464.41;5035120;28;20048;-77
2023/01/06 08:14:24;;;;;;;13.18;4.00;;;;;;;8.66;100.00;101466.88;5050947;28;20029;-75
2023/01/06 08:16:49;;;;;;;12.52;4.00;;;;;;;8.73;100.00;101497.78;5053020;28;20029;-80
2023/01/06 08:19:15;;;;;;;11.32;4.13;;;;;;;8.74;100.00;101496.06;5053182;28;20033;-77
2023/01/06 08:21:40;;;;;;;13.73;4.05;;;;;;;8.81;100.00;101507.59;5051936;28;20033;-74
2023/01/06 08:24:06;;;;;;;11.93;4.50;;;;;;;8.81;100.00;101502.31;5052204;28;20087;-78
2023/01/06 08:26:31;;;;;;;13.02;4.45;;;;;;;8.83;100.00;101514.69;5057556;28;20071;-73
2023/01/06 08:28:57;;;;;;;13.82;4.90;;;;;;;8.95;100.00;101510.56;5052577;28;20100;-74
2023/01/06 08:31:23;;;;;;;14.10;4.80;;;;;;;8.94;100.00;101498.22;5054876;28;20537;-74
2023/01/06 08:33:50;;;;;;;14.88;4.80;;;;;;;8.98;100.00;101506.22;5053661;28;20031;-73
2023/01/06 08:36:17;;;;;;;13.15;4.57;;;;;;;9.00;100.00;101507.16;5052524;28;20029;-73
2023/01/06 08:38:43;;;;;;;15.00;4.63;;;;;;;9.08;100.00;101524.03;5052505;28;20082;-75
2023/01/06 08:41:09;;;;;;;13.65;4.55;;;;;;;9.10;100.00;101520.53;5052905;28;20029;-75
2023/01/06 08:43:35;;;;;;;14.02;4.82;;;;;;;9.18;100.00;101540.06;5053222;28;20024;-72
2023/01/06 08:46:02;;;;;;;15.05;5.10;;;;;;;9.17;100.00;101527.72;5053199;28;20530;-73
2023/01/06 08:48:29;;;;;;;13.18;4.68;;;;;;;9.23;100.00;101535.75;5052548;28;20068;-73
2023/01/06 08:50:55;;;;;;;13.43;5.00;;;;;;;9.20;100.00;101538.34;5052811;28;20372;-74
2023/01/06 08:53:21;;;;;;;15.10;5.00;;;;;;;9.19;100.00;101533.94;5049111;28;20032;-73
2023/01/06 08:55:46;;;;;;;15.27;5.47;;;;;;;9.19;100.00;101542.72;5052847;28;20391;-77
2023/01/06 08:58:11;;;;;;;14.80;5.68;;;;;;;9.26;100.00;101554.28;5052747;28;20159;-76
2023/01/06 09:00:40;;;;;;;17.30;5.93;;;;;;;9.29;100.00;101551.75;5052975;28;20025;-73
2023/01/06 09:03:05;;;;;;;16.83;6.07;;;;;;;9.30;100.00;101558.78;5052784;28;20387;-76
2023/01/06 09:05:31;;;;;;;16.52;6.03;;;;;;;9.28;100.00;101557.88;5052675;28;20025;-75
2023/01/06 09:07:56;;;;;;;17.40;6.30;;;;;;;9.32;100.00;101548.25;5052896;28;20476;-73
2023/01/06 09:10:21;;;;;;;17.98;6.57;;;;;;;9.36;100.00;101563.28;5052572;28;20033;-74
2023/01/06 09:12:47;;;;;;;17.17;6.30;;;;;;;9.36;100.00;101565.94;5053043;28;20029;-74
2023/01/06 09:15:12;;;;;;;17.13;6.22;;;;;;;9.36;100.00;101580.03;5051861;28;20107;-75
2023/01/06 09:17:38;;;;;;;17.92;7.00;;;;;;;9.38;100.00;101569.50;5052443;28;20059;-73
2023/01/06 09:20:04;;;;;;;17.92;6.82;;;;;;;9.42;100.00;101572.25;5046852;28;20017;-77
2023/01/06 09:22:30;;;;;;;19.00;7.43;;;;;;;9.39;100.00;101582.75;5051409;28;20039;-80
2023/01/06 09:24:55;;;;;;;19.23;7.40;;;;;;;9.36;100.00;101585.31;5053755;28;20033;-76
2023/01/06 09:27:20;;;;;;;18.75;7.45;;;;;;;9.36;100.00;101585.31;5052862;28;20024;-75
2023/01/06 09:29:46;;;;;;;18.40;7.22;;;;;;;9.40;100.00;101596.81;5051518;28;20063;-79
2023/01/06 09:32:11;;;;;;;18.70;7.25;;;;;;;9.47;100.00;101595.19;5055093;28;20082;-81
2023/01/06 09:34:36;;;;;;;18.30;7.15;;;;;;;9.53;100.00;101601.47;5056406;28;20025;-73
2023/01/06 09:37:02;;;;;;;19.30;7.40;;;;;;;9.59;100.00;101606.88;5035169;28;20075;-90
2023/01/06 09:39:27;;;;;;;18.83;7.57;;;;;;;9.64;100.00;101603.44;5033048;28;20030;-88
2023/01/06 09:41:52;;;;;;;18.67;7.07;;;;;;;9.65;100.00;101610.50;5052217;28;20501;-90
2023/01/06 09:44:29;;;;;;;17.42;6.93;;;;;;;9.62;100.00;101598.13;5052669;28;20060;-86
2023/01/06 09:46:57;;;;;;;18.48;6.50;;;;;;;9.70;100.00;101608.88;5045266;28;20064;-85
2023/01/06 09:49:41;;;;;;;18.42;7.18;;;;;;;9.82;100.00;101613.50;5051084;28;20546;-91
2023/01/06 09:52:19;;;;;;;17.67;6.60;;;;;;;10.04;100.00;101613.03;5052431;28;20029;-88
2023/01/06 09:54:53;;;;;;;18.02;6.20;;;;;;;10.20;100.00;101615.97;5051968;28;20443;-76
2023/01/06 09:57:29;;;;;;;17.77;6.60;;;;;;;10.32;100.00;101623.22;5032849;28;20025;-74
2023/01/06 09:59:59;;;;;;;19.58;7.10;;;;;;;10.35;100.00;101624.19;5054857;28;20107;-80
2023/01/06 10:02:51;;;;;;;18.38;7.10;;;;;;;10.26;100.00;101630.16;5051573;28;20036;-77
2023/01/06 10:05:21;;;;;;;19.33;7.68;;;;;;;10.25;100.00;101635.44;5052798;28;20372;-74
2023/01/06 10:08:07;;;;;;;18.83;7.32;;;;;;;10.18;100.00;101629.16;5052157;28;20021;-87
2023/01/06 10:10:47;;;;;;;18.30;7.07;;;;;;;10.07;100.00;101634.22;5051640;28;20363;-78
2023/01/06 10:13:52;;;;;;;19.45;7.50;;;;;;;10.00;100.00;101629.69;5051873;28;20024;-75
2023/01/06 10:16:47;;;;;;;20.02;7.03;;;;;;;10.01;100.00;101636.75;5053478;28;20115;-77
2023/01/06 10:19:26;;;;;;;19.52;7.30;;;;;;;10.20;100.00;101635.34;5057927;28;20044;-76
2023/01/06 10:22:16;;;;;;;18.15;6.60;;;;;;;10.28;100.00;101624.91;5057370;28;20029;-79
2023/01/06 10:24:54;;;;;;;17.95;6.30;;;;;;;10.21;100.00;101634.50;5052001;28;20028;-86
2023/01/06 10:27:38;;;;;;;18.83;6.20;;;;;;;10.08;100.00;101624.56;5052875;28;20027;-82
2023/01/06 10:30:16;;;;;;;18.08;6.40;;;;;;;10.04;100.00;101626.25;5058048;28;20451;-83
2023/01/06 10:32:44;;;;;;;17.08;5.72;;;;;;;9.99;100.00;101634.94;5052779;28;20079;-89
2023/01/06 10:35:13;;;;;;;17.63;6.13;;;;;;;9.92;100.00;101629.53;5060216;28;20032;-82
2023/01/06 10:37:40;;;;;;;18.27;5.70;;;;;;;9.88;100.00;101634.75;5057829;28;20139;-89
2023/01/06 10:40:16;;;;;;;17.95;6.20;;;;;;;9.84;100.00;101638.19;5054124;28;20031;-83
2023/01/06 10:42:56;;;;;;;17.92;5.78;;;;;;;10.17;100.00;101632.66;5059640;28;20033;-84
2023/01/06 10:45:42;;;;;;;18.08;5.40;;;;;;;10.72;100.00;101638.06;5054538;28;20037;-84
2023/01/06 10:48:28;;;;;;;15.32;5.10;;;;;;;11.03;100.00;101630.59;5055761;28;20041;-88
2023/01/06 10:50:55;;;;;;;17.50;5.90;;;;;;;10.79;100.00;101628.44;5035168;28;20111;-88
2023/01/06 10:53:20;;;;;;;18.67;6.22;;;;;;;10.91;100.00;101622.50;5056315;28;20021;-87
2023/01/06 10:56:04;;;;;;;17.85;6.25;;;;;;;10.92;100.00;101614.56;5040069;28;20095;-88
2023/01/06 10:58:29;;;;;;;18.38;6.75;;;;;;;11.36;100.00;101631.94;5054262;28;20033;-87
2023/01/06 11:00:57;;;;;;;18.33;6.90;;;;;;;11.40;100.00;101628.50;5041645;28;20029;-88
2023/01/06 11:03:23;;;;;;;19.65;7.35;;;;;;;11.20;100.00;101630.84;5055572;28;20549;-86
2023/01/06 11:06:01;;;;;;;19.90;7.45;;;;;;;10.77;100.00;101628.41;5058141;28;20033;-87
2023/01/06 11:08:28;;;;;;;19.63;8.00;;;;;;;10.56;100.00;101628.09;5058406;28;20108;-84
2023/01/06 11:10:56;;;;;;;19.60;8.80;;;;;;;10.39;100.00;101639.25;5057945;28;20041;-85
2023/01/06 11:13:31;;;;;;;20.65;8.70;;;;;;;10.30;100.00;101639.06;5056429;28;20505;-84
2023/01/06 11:15:58;;;;;;;20.10;8.77;;;;;;;10.17;100.00;101632.66;5054211;28;20021;-82
2023/01/06 11:18:28;;;;;;;20.55;9.18;;;;;;;10.14;100.00;101626.44;5057412;28;20510;-85
2023/01/06 11:21:10;;;;;;;22.08;9.57;;;;;;;10.15;100.00;101628.19;5054622;28;20033;-86
2023/01/06 11:23:37;;;;;;;20.85;10.05;;;;;;;10.22;100.00;101624.81;5051323;28;20067;-86
2023/01/06 11:26:26;;;;;;;21.42;9.73;;;;;;;10.20;100.00;101618.63;5037152;28;20377;-81
2023/01/06 11:28:53;;;;;;;21.27;10.05;;;;;;;10.15;100.00;101634.41;5054423;28;20594;-83
2023/01/06 11:31:24;;;;;;;20.83;9.90;;;;;;;10.10;100.00;101626.34;5054650;28;20037;-87
2023/01/06 11:34:03;;;;;;;21.98;10.30;;;;;;;10.36;100.00;101627.75;5054445;28;20051;-83